createdAt,value
2017-11-18T00:00:36.085Z,0
2017-11-18T00:01:36.556Z,0
2017-11-18T00:02:35.977Z,0
2017-11-18T00:03:36.426Z,0
2017-11-18T00:04:36.203Z,0
2017-11-18T00:05:36.641Z,0
2017-11-18T00:06:36.067Z,0
2017-11-18T00:07:35.962Z,0
2017-11-18T00:08:36.510Z,0
2017-11-18T00:09:35.921Z,0
2017-11-18T00:10:36.472Z,0
2017-11-18T00:11:36.010Z,0
2017-11-18T00:12:35.921Z,0
2017-11-18T00:13:38.157Z,0
2017-11-18T00:14:36.642Z,0
2017-11-18T00:15:35.994Z,0
2017-11-18T00:16:36.528Z,0
2017-11-18T00:17:36.010Z,0
2017-11-18T00:18:36.494Z,0
2017-11-18T00:19:35.884Z,0
2017-11-18T00:20:35.895Z,0
2017-11-18T00:21:36.884Z,0
2017-11-18T00:22:36.337Z,0
2017-11-18T00:23:36.164Z,0
2017-11-18T00:24:36.640Z,0
2017-11-18T00:25:36.070Z,0
2017-11-18T00:26:36.849Z,0
2017-11-18T00:27:36.204Z,0
2017-11-18T00:28:36.638Z,0
2017-11-18T00:29:36.668Z,0
2017-11-18T00:30:36.112Z,0
2017-11-18T00:31:36.626Z,0
2017-11-18T00:32:36.114Z,0
2017-11-18T00:33:36.550Z,0
2017-11-18T00:34:35.995Z,0
2017-11-18T00:35:35.745Z,0
2017-11-18T00:36:36.189Z,0
2017-11-18T00:37:37.049Z,0
2017-11-18T00:38:36.528Z,0
2017-11-18T00:39:35.963Z,0
2017-11-18T00:40:36.373Z,0
2017-11-18T00:41:35.876Z,0
2017-11-18T00:42:36.366Z,0
2017-11-18T00:43:35.846Z,0
2017-11-18T00:44:36.310Z,0
2017-11-18T00:45:35.816Z,0
2017-11-18T00:46:36.058Z,0
2017-11-18T00:47:36.951Z,0
2017-11-18T00:48:36.339Z,0
2017-11-18T00:49:35.788Z,0
2017-11-18T00:50:36.181Z,0
2017-11-18T00:51:36.627Z,0
2017-11-18T00:52:36.042Z,0
2017-11-18T00:53:37.110Z,0
2017-11-18T00:54:36.181Z,0
2017-11-18T00:55:36.605Z,0
2017-11-18T00:56:36.024Z,0
2017-11-18T00:57:36.445Z,0
2017-11-18T00:58:35.841Z,0
2017-11-18T00:59:36.328Z,0
2017-11-18T01:00:35.662Z,0
2017-11-18T01:01:36.099Z,0
2017-11-18T01:02:36.493Z,0
2017-11-18T01:03:35.900Z,0
2017-11-18T01:04:36.371Z,0
2017-11-18T01:05:35.795Z,0
2017-11-18T01:06:36.151Z,0
2017-11-18T01:07:35.967Z,0
2017-11-18T01:08:37.040Z,0
2017-11-18T01:09:36.483Z,0
2017-11-18T01:10:35.915Z,0
2017-11-18T01:11:36.318Z,0
2017-11-18T01:12:35.720Z,0
2017-11-18T01:13:36.118Z,0
2017-11-18T01:14:36.580Z,0
2017-11-18T01:15:35.666Z,0
2017-11-18T01:16:35.996Z,0
2017-11-18T01:17:36.349Z,0
2017-11-18T01:18:36.419Z,0
2017-11-18T01:19:36.012Z,0
2017-11-18T01:20:36.585Z,0
2017-11-18T01:21:36.019Z,0
2017-11-18T01:22:36.369Z,0
2017-11-18T01:23:35.761Z,0
2017-11-18T01:24:36.251Z,0
2017-11-18T01:25:36.934Z,0
2017-11-18T01:26:36.304Z,0
2017-11-18T01:27:35.674Z,0
2017-11-18T01:28:36.021Z,0
2017-11-18T01:29:35.708Z,0
2017-11-18T01:30:36.226Z,0
2017-11-18T01:31:35.707Z,0
2017-11-18T01:32:36.543Z,0
2017-11-18T01:33:35.938Z,0
2017-11-18T01:34:36.333Z,0
2017-11-18T01:35:36.006Z,0
2017-11-18T01:36:36.533Z,0
2017-11-18T01:37:35.958Z,0
2017-11-18T01:38:36.370Z,0
2017-11-18T01:39:35.712Z,0
2017-11-18T01:40:36.745Z,0
2017-11-18T01:41:36.084Z,0
2017-11-18T01:42:36.223Z,0
2017-11-18T01:43:36.923Z,0
2017-11-18T01:44:36.269Z,0
2017-11-18T01:45:35.700Z,0
2017-11-18T01:46:35.919Z,0
2017-11-18T01:47:36.313Z,0
2017-11-18T01:49:02.929Z,0
2017-11-18T01:49:33.390Z,0
2017-11-18T01:50:33.685Z,0
2017-11-18T01:51:34.223Z,0
2017-11-18T01:52:33.633Z,0
2017-11-18T01:53:34.180Z,0
2017-11-18T01:54:33.532Z,0
2017-11-18T01:55:33.889Z,0
2017-11-18T01:56:34.243Z,0
2017-11-18T01:57:33.649Z,0
2017-11-18T01:58:34.016Z,0
2017-11-18T01:59:33.362Z,0
2017-11-18T02:00:33.756Z,0
2017-11-18T02:01:34.039Z,0
2017-11-18T02:02:33.426Z,0
2017-11-18T02:03:33.893Z,0
2017-11-18T02:04:34.236Z,0
2017-11-18T02:05:33.620Z,0
2017-11-18T02:06:33.962Z,0
2017-11-18T02:07:33.399Z,0
2017-11-18T02:08:34.235Z,0
2017-11-18T02:09:33.573Z,0
2017-11-18T02:10:34.096Z,0
2017-11-18T02:11:33.419Z,0
2017-11-18T02:12:34.033Z,0
2017-11-18T02:13:33.378Z,0
2017-11-18T02:14:34.166Z,0
2017-11-18T02:15:34.205Z,0
2017-11-18T02:16:33.638Z,0
2017-11-18T02:17:34.003Z,0
2017-11-18T02:18:33.404Z,0
2017-11-18T02:19:33.703Z,0
2017-11-18T02:20:34.077Z,0
2017-11-18T02:21:33.522Z,0
2017-11-18T02:22:33.923Z,0
2017-11-18T02:23:34.298Z,0
2017-11-18T02:24:33.645Z,0
2017-11-18T02:25:34.092Z,0
2017-11-18T02:26:33.426Z,0
2017-11-18T02:27:33.728Z,0
2017-11-18T02:28:33.976Z,0
2017-11-18T02:29:33.357Z,0
2017-11-18T02:30:33.679Z,0
2017-11-18T02:31:34.038Z,0
2017-11-18T02:32:33.427Z,0
2017-11-18T02:33:34.346Z,0
2017-11-18T02:34:34.019Z,0
2017-11-18T02:35:33.311Z,0
2017-11-18T02:36:33.709Z,0
2017-11-18T02:37:34.112Z,0
2017-11-18T02:38:33.391Z,0
2017-11-18T02:39:34.021Z,0
2017-11-18T02:40:33.322Z,0
2017-11-18T02:41:33.828Z,0
2017-11-18T02:42:34.341Z,0
2017-11-18T02:43:33.891Z,0
2017-11-18T02:44:34.224Z,0
2017-11-18T02:45:33.519Z,0
2017-11-18T02:46:33.854Z,0
2017-11-18T02:47:34.172Z,0
2017-11-18T02:48:33.545Z,0
2017-11-18T02:49:33.666Z,0
2017-11-18T02:50:34.109Z,0
2017-11-18T02:51:33.426Z,0
2017-11-18T02:52:33.764Z,0
2017-11-18T02:53:34.169Z,0
2017-11-18T02:54:34.109Z,0
2017-11-18T02:55:33.888Z,0
2017-11-18T02:56:33.442Z,0
2017-11-18T02:57:34.262Z,0
2017-11-18T02:58:33.959Z,0
2017-11-18T02:59:33.405Z,0
2017-11-18T03:00:33.912Z,0
2017-11-18T03:01:34.645Z,0
2017-11-18T03:02:33.920Z,0
2017-11-18T03:03:34.240Z,0
2017-11-18T03:04:33.511Z,0
2017-11-18T03:05:33.947Z,0
2017-11-18T03:06:34.313Z,0
2017-11-18T03:07:33.683Z,0
2017-11-18T03:08:34.004Z,0
2017-11-18T03:09:33.381Z,0
2017-11-18T03:10:34.124Z,0
2017-11-18T03:11:33.482Z,0
2017-11-18T03:12:33.825Z,0
2017-11-18T03:13:33.348Z,0
2017-11-18T03:14:33.659Z,0
2017-11-18T03:15:33.990Z,0
2017-11-18T03:16:33.584Z,0
2017-11-18T03:17:33.464Z,0
2017-11-18T03:18:33.815Z,0
2017-11-18T03:19:34.124Z,0
2017-11-18T03:20:33.715Z,0
2017-11-18T03:21:34.005Z,0
2017-11-18T03:22:33.352Z,0
2017-11-18T03:23:33.349Z,0
2017-11-18T03:24:34.355Z,0
2017-11-18T03:25:33.679Z,0
2017-11-18T03:26:34.044Z,0
2017-11-18T03:27:33.516Z,0
2017-11-18T03:28:33.745Z,0
2017-11-18T03:29:34.044Z,0
2017-11-18T03:30:33.449Z,0
2017-11-18T03:31:33.845Z,0
2017-11-18T03:32:34.207Z,0
2017-11-18T03:33:33.517Z,0
2017-11-18T03:34:33.846Z,0
2017-11-18T03:35:34.472Z,0
2017-11-18T03:36:33.785Z,0
2017-11-18T03:37:34.121Z,0
2017-11-18T03:38:33.473Z,0
2017-11-18T03:39:33.746Z,0
2017-11-18T03:40:34.102Z,0
2017-11-18T03:41:34.301Z,0
2017-11-18T03:42:33.802Z,0
2017-11-18T03:43:34.176Z,0
2017-11-18T03:44:33.573Z,0
2017-11-18T03:45:33.840Z,0
2017-11-18T03:46:33.952Z,0
2017-11-18T03:47:34.282Z,0
2017-11-18T03:48:34.113Z,0
2017-11-18T03:49:33.644Z,0
2017-11-18T03:50:34.128Z,0
2017-11-18T03:51:33.496Z,0
2017-11-18T03:52:33.745Z,0
2017-11-18T03:53:34.111Z,0
2017-11-18T03:54:33.475Z,0
2017-11-18T03:55:33.421Z,0
2017-11-18T03:56:34.049Z,0
2017-11-18T03:57:33.291Z,0
2017-11-18T03:58:33.666Z,0
2017-11-18T03:59:34.016Z,0
2017-11-18T04:00:33.362Z,0
2017-11-18T04:01:34.009Z,0
2017-11-18T04:02:33.496Z,0
2017-11-18T04:03:33.856Z,0
2017-11-18T04:04:33.812Z,0
2017-11-18T04:05:34.146Z,0
2017-11-18T04:06:33.692Z,0
2017-11-18T04:07:34.165Z,0
2017-11-18T04:08:33.540Z,0
2017-11-18T04:09:33.889Z,0
2017-11-18T04:10:34.234Z,0
2017-11-18T04:11:34.004Z,0
2017-11-18T04:12:33.469Z,0
2017-11-18T04:13:33.722Z,0
2017-11-18T04:14:34.062Z,0
2017-11-18T04:15:33.615Z,0
2017-11-18T04:16:34.065Z,0
2017-11-18T04:17:33.393Z,0
2017-11-18T04:18:33.857Z,0
2017-11-18T04:19:33.836Z,0
2017-11-18T04:20:34.203Z,0
2017-11-18T04:21:33.602Z,0
2017-11-18T04:22:33.950Z,0
2017-11-18T04:23:33.314Z,0
2017-11-18T04:24:33.749Z,0
2017-11-18T04:25:33.807Z,0
2017-11-18T04:26:34.485Z,0
2017-11-18T04:27:33.783Z,0
2017-11-18T04:28:34.060Z,0
2017-11-18T04:29:34.081Z,0
2017-11-18T04:30:33.359Z,0
2017-11-18T04:31:33.720Z,0
2017-11-18T04:32:34.554Z,0
2017-11-18T04:33:34.002Z,0
2017-11-18T04:34:33.359Z,0
2017-11-18T04:35:33.893Z,0
2017-11-18T04:36:34.078Z,0
2017-11-18T04:37:33.552Z,0
2017-11-18T04:38:34.160Z,0
2017-11-18T04:39:34.084Z,0
2017-11-18T04:40:33.473Z,0
2017-11-18T04:41:33.870Z,0
2017-11-18T04:42:34.074Z,0
2017-11-18T04:43:33.962Z,0
2017-11-18T04:44:33.268Z,0
2017-11-18T04:45:33.608Z,0
2017-11-18T04:46:33.913Z,0
2017-11-18T04:47:33.440Z,0
2017-11-18T04:48:33.451Z,0
2017-11-18T04:49:33.726Z,0
2017-11-18T04:50:33.801Z,0
2017-11-18T04:51:34.125Z,0
2017-11-18T04:52:34.151Z,0
2017-11-18T04:53:34.087Z,0
2017-11-18T04:54:33.448Z,0
2017-11-18T04:55:33.793Z,0
2017-11-18T04:56:34.169Z,0
2017-11-18T04:57:33.508Z,0
2017-11-18T04:58:34.212Z,0
2017-11-18T04:59:33.725Z,0
2017-11-18T05:00:33.491Z,0
2017-11-18T05:01:33.828Z,0
2017-11-18T05:02:34.197Z,0
2017-11-18T05:03:34.081Z,0
2017-11-18T05:04:33.501Z,0
2017-11-18T05:05:33.885Z,0
2017-11-18T05:06:33.806Z,0
2017-11-18T05:07:34.478Z,0
2017-11-18T05:08:33.887Z,0
2017-11-18T05:09:33.395Z,0
2017-11-18T05:10:33.831Z,0
2017-11-18T05:11:33.448Z,0
2017-11-18T05:12:33.832Z,0
2017-11-18T05:13:34.206Z,0
2017-11-18T05:14:34.068Z,0
2017-11-18T05:15:33.720Z,0
2017-11-18T05:16:34.206Z,0
2017-11-18T05:17:33.370Z,0
2017-11-18T05:18:33.856Z,0
2017-11-18T05:19:33.477Z,0
2017-11-18T05:20:33.940Z,0
2017-11-18T05:21:33.292Z,0
2017-11-18T05:22:33.664Z,0
2017-11-18T05:23:34.442Z,0
2017-11-18T05:24:33.996Z,0
2017-11-18T05:25:33.422Z,0
2017-11-18T05:26:33.887Z,0
2017-11-18T05:27:33.911Z,0
2017-11-18T05:28:33.332Z,0
2017-11-18T05:29:34.182Z,0
2017-11-18T05:30:33.625Z,0
2017-11-18T05:31:33.707Z,0
2017-11-18T05:32:34.046Z,0
2017-11-18T05:33:47.442Z,0
2017-11-18T05:34:48.075Z,0
2017-11-18T05:35:47.879Z,0
2017-11-18T05:36:48.381Z,0
2017-11-18T05:37:47.832Z,0
2017-11-18T05:38:48.248Z,0
2017-11-18T05:39:47.952Z,0
2017-11-18T05:40:47.661Z,0
2017-11-18T05:41:48.181Z,0
2017-11-18T05:42:47.740Z,0
2017-11-18T05:43:48.150Z,0
2017-11-18T05:44:47.587Z,0
2017-11-18T05:45:48.068Z,0
2017-11-18T05:46:47.458Z,0
2017-11-18T05:47:47.926Z,0
2017-11-18T05:48:48.326Z,0
2017-11-18T05:49:47.757Z,0
2017-11-18T05:50:47.882Z,0
2017-11-18T05:51:48.584Z,0
2017-11-18T05:52:48.189Z,0
2017-11-18T05:53:47.645Z,0
2017-11-18T05:54:48.254Z,0
2017-11-18T05:55:48.239Z,0
2017-11-18T05:56:47.731Z,0
2017-11-18T05:57:47.469Z,0
2017-11-18T05:58:47.716Z,0
2017-11-18T05:59:48.462Z,0
2017-11-18T06:00:47.922Z,0
2017-11-18T06:01:48.284Z,0
2017-11-18T06:02:47.806Z,0
2017-11-18T06:03:48.270Z,0
2017-11-18T06:04:48.083Z,0
2017-11-18T06:05:48.066Z,0
2017-11-18T06:06:47.543Z,0
2017-11-18T06:07:48.055Z,0
2017-11-18T06:08:47.596Z,0
2017-11-18T06:09:48.075Z,0
2017-11-18T06:10:47.657Z,0
2017-11-18T06:11:48.257Z,0
2017-11-18T06:12:47.793Z,0
2017-11-18T06:13:48.258Z,0
2017-11-18T06:14:47.839Z,0
2017-11-18T06:15:48.328Z,0
2017-11-18T06:16:47.908Z,0
2017-11-18T06:17:48.530Z,0
2017-11-18T06:18:48.322Z,0
2017-11-18T06:19:48.132Z,0
2017-11-18T06:20:47.844Z,0
2017-11-18T06:21:48.436Z,0
2017-11-18T06:22:47.881Z,0
2017-11-18T06:23:47.950Z,0
2017-11-18T06:24:47.802Z,0
2017-11-18T06:25:48.366Z,0
2017-11-18T06:26:47.810Z,0
2017-11-18T06:27:48.316Z,0
2017-11-18T06:28:47.619Z,0
2017-11-18T06:29:47.854Z,0
2017-11-18T06:30:48.254Z,0
2017-11-18T06:31:47.737Z,0
2017-11-18T06:32:49.385Z,0
2017-11-18T06:33:48.123Z,0
2017-11-18T06:34:47.716Z,0
2017-11-18T06:35:48.249Z,0
2017-11-18T06:36:48.248Z,0
2017-11-18T06:37:47.783Z,0
2017-11-18T06:38:47.978Z,0
2017-11-18T06:39:48.166Z,0
2017-11-18T06:40:48.322Z,0
2017-11-18T06:41:48.246Z,0
2017-11-18T06:42:47.969Z,0
2017-11-18T06:43:47.637Z,0
2017-11-18T06:44:48.383Z,0
2017-11-18T06:45:47.888Z,0
2017-11-18T06:46:47.642Z,0
2017-11-18T06:47:48.011Z,0
2017-11-18T06:48:47.730Z,0
2017-11-18T06:49:48.182Z,0
2017-11-18T06:50:47.914Z,0
2017-11-18T06:51:48.905Z,0
2017-11-18T06:52:47.759Z,0
2017-11-18T06:53:48.281Z,0
2017-11-18T06:54:47.948Z,0
2017-11-18T06:55:47.597Z,0
2017-11-18T06:56:48.521Z,0
2017-11-18T06:57:48.094Z,0
2017-11-18T06:58:47.610Z,1
2017-11-18T06:59:48.368Z,1
2017-11-18T07:00:47.961Z,1
2017-11-18T07:01:48.286Z,1
2017-11-18T07:02:48.483Z,1
2017-11-18T07:03:48.321Z,1
2017-11-18T07:04:47.920Z,1
2017-11-18T07:05:48.059Z,1
2017-11-18T07:06:47.670Z,1
2017-11-18T07:07:48.189Z,1
2017-11-18T07:08:48.014Z,1
2017-11-18T07:09:47.936Z,2
2017-11-18T07:10:48.526Z,2
2017-11-18T07:11:48.064Z,2
2017-11-18T07:12:48.458Z,2
2017-11-18T07:13:48.027Z,2
2017-11-18T07:14:48.015Z,2
2017-11-18T07:15:47.652Z,2
2017-11-18T07:16:48.119Z,2
2017-11-18T07:17:48.523Z,3
2017-11-18T07:18:48.195Z,2
2017-11-18T07:19:47.785Z,2
2017-11-18T07:20:48.345Z,3
2017-11-18T07:21:48.450Z,3
2017-11-18T07:22:47.934Z,3
2017-11-18T07:23:47.497Z,3
2017-11-18T07:24:48.774Z,4
2017-11-18T07:25:47.812Z,4
2017-11-18T07:26:48.305Z,4
2017-11-18T07:27:47.910Z,4
2017-11-18T07:28:48.495Z,4
2017-11-18T07:29:48.039Z,4
2017-11-18T07:30:47.694Z,4
2017-11-18T07:31:48.293Z,4
2017-11-18T07:32:47.866Z,4
2017-11-18T07:33:48.531Z,4
2017-11-18T07:34:48.249Z,4
2017-11-18T07:35:47.944Z,5
2017-11-18T07:36:47.711Z,5
2017-11-18T07:37:48.275Z,5
2017-11-18T07:38:49.056Z,5
2017-11-18T07:39:47.713Z,5
2017-11-18T07:40:47.928Z,6
2017-11-18T07:41:48.360Z,6
2017-11-18T07:42:48.685Z,6
2017-11-18T07:43:48.814Z,6
2017-11-18T07:44:48.234Z,6
2017-11-18T07:45:48.540Z,7
2017-11-18T07:46:47.840Z,8
2017-11-18T07:47:48.411Z,9
2017-11-18T07:48:48.029Z,10
2017-11-18T07:49:47.643Z,12
2017-11-18T07:50:48.618Z,12
2017-11-18T07:51:48.144Z,12
2017-11-18T07:52:47.882Z,11
2017-11-18T07:53:47.945Z,10
2017-11-18T07:54:47.493Z,10
2017-11-18T07:55:48.281Z,10
2017-11-18T07:56:48.074Z,10
2017-11-18T07:57:47.918Z,9
2017-11-18T07:58:47.845Z,10
2017-11-18T07:59:48.509Z,11
2017-11-18T08:00:47.821Z,10
2017-11-18T08:01:48.652Z,11
2017-11-18T08:02:48.370Z,11
2017-11-18T08:03:48.173Z,11
2017-11-18T08:04:47.870Z,12
2017-11-18T08:05:48.509Z,11
2017-11-18T08:06:48.092Z,11
2017-11-18T08:07:47.781Z,11
2017-11-18T08:08:48.676Z,11
2017-11-18T08:09:48.366Z,12
2017-11-18T08:10:48.007Z,12
2017-11-18T08:11:47.545Z,14
2017-11-18T08:12:48.112Z,15
2017-11-18T08:13:48.388Z,14
2017-11-18T08:14:49.876Z,13
2017-11-18T08:15:48.559Z,13
2017-11-18T08:16:48.298Z,13
2017-11-18T08:17:49.018Z,16
2017-11-18T08:18:47.736Z,18
2017-11-18T08:19:48.488Z,19
2017-11-18T08:20:48.112Z,18
2017-11-18T08:21:48.304Z,16
2017-11-18T08:22:48.720Z,17
2017-11-18T08:23:47.580Z,19
2017-11-18T08:24:48.239Z,21
2017-11-18T08:25:49.437Z,21
2017-11-18T08:26:48.050Z,21
2017-11-18T08:27:52.098Z,19
2017-11-18T08:28:47.784Z,17
2017-11-18T08:29:48.389Z,19
2017-11-18T08:30:48.208Z,21
2017-11-18T08:31:48.302Z,22
2017-11-18T08:32:48.453Z,21
2017-11-18T08:33:49.094Z,21
2017-11-18T08:34:47.817Z,23
2017-11-18T08:35:47.714Z,26
2017-11-18T08:36:47.787Z,28
2017-11-18T08:37:47.721Z,30
2017-11-18T08:38:47.895Z,30
2017-11-18T08:39:48.042Z,29
2017-11-18T08:40:47.631Z,30
2017-11-18T08:41:48.187Z,33
2017-11-18T08:43:01.385Z,35
2017-11-18T08:43:51.127Z,34
2017-11-18T08:44:50.683Z,32
2017-11-18T08:45:50.727Z,33
2017-11-18T08:46:50.233Z,29
2017-11-18T08:47:53.911Z,26
2017-11-18T08:48:49.441Z,28
2017-11-18T08:49:50.503Z,32
2017-11-18T08:50:47.744Z,35
2017-11-18T08:51:50.851Z,36
2017-11-18T08:52:49.332Z,38
2017-11-18T08:53:49.688Z,37
2017-11-18T08:54:49.167Z,34
2017-11-18T08:55:49.247Z,35
2017-11-18T08:56:47.894Z,34
2017-11-18T08:57:48.838Z,32
2017-11-18T08:58:48.254Z,33
2017-11-18T08:59:48.453Z,35
2017-11-18T09:00:48.714Z,34
2017-11-18T09:01:48.333Z,32
2017-11-18T09:02:48.420Z,30
2017-11-18T09:03:48.706Z,31
2017-11-18T09:04:48.234Z,33
2017-11-18T09:05:48.362Z,37
2017-11-18T09:06:48.715Z,43
2017-11-18T09:07:47.652Z,41
2017-11-18T09:08:48.897Z,41
2017-11-18T09:09:48.448Z,39
2017-11-18T09:10:50.663Z,37
2017-11-18T09:11:48.586Z,35
2017-11-18T09:12:47.864Z,36
2017-11-18T09:13:48.293Z,40
2017-11-18T09:14:49.271Z,37
2017-11-18T09:15:48.100Z,29
2017-11-18T09:16:47.817Z,27
2017-11-18T09:17:48.041Z,30
2017-11-18T09:18:47.812Z,31
2017-11-18T09:19:48.570Z,31
2017-11-18T09:20:49.213Z,35
2017-11-18T09:21:48.523Z,45
2017-11-18T09:22:48.175Z,61
2017-11-18T09:23:48.519Z,73
2017-11-18T09:24:48.500Z,78
2017-11-18T09:25:50.729Z,81
2017-11-18T09:26:53.358Z,81
2017-11-18T09:27:52.193Z,83
2017-11-18T09:28:49.037Z,84
2017-11-18T09:29:47.908Z,83
2017-11-18T09:30:50.006Z,85
2017-11-18T09:31:50.057Z,94
2017-11-18T09:32:49.355Z,93
2017-11-18T09:33:48.134Z,83
2017-11-18T09:34:49.953Z,77
2017-11-18T09:35:47.779Z,73
2017-11-18T09:36:49.712Z,70
2017-11-18T09:37:48.047Z,68
2017-11-18T09:38:48.129Z,68
2017-11-18T09:39:48.138Z,64
2017-11-18T09:40:48.270Z,61
2017-11-18T09:41:47.957Z,59
2017-11-18T09:42:48.066Z,54
2017-11-18T09:43:47.902Z,51
2017-11-18T09:44:47.808Z,50
2017-11-18T09:45:47.748Z,51
2017-11-18T09:46:48.721Z,54
2017-11-18T09:47:47.856Z,53
2017-11-18T09:48:47.936Z,50
2017-11-18T09:49:48.872Z,50
2017-11-18T09:50:48.391Z,49
2017-11-18T09:51:48.485Z,48
2017-11-18T09:52:48.133Z,48
2017-11-18T09:53:48.352Z,46
2017-11-18T09:54:47.982Z,45
2017-11-18T09:55:47.924Z,44
2017-11-18T09:56:48.562Z,45
2017-11-18T09:57:48.890Z,47
2017-11-18T09:58:48.657Z,50
2017-11-18T09:59:48.615Z,50
2017-11-18T10:00:48.713Z,50
2017-11-18T10:01:48.372Z,50
2017-11-18T10:02:48.087Z,50
2017-11-18T10:03:47.683Z,53
2017-11-18T10:04:49.015Z,54
2017-11-18T10:05:47.862Z,54
2017-11-18T10:06:49.476Z,52
2017-11-18T10:07:48.673Z,48
2017-11-18T10:08:48.531Z,47
2017-11-18T10:09:49.132Z,50
2017-11-18T10:10:49.219Z,53
2017-11-18T10:11:47.912Z,53
2017-11-18T10:12:49.790Z,53
2017-11-18T10:13:47.979Z,58
2017-11-18T10:14:48.635Z,64
2017-11-18T10:15:48.336Z,68
2017-11-18T10:16:48.491Z,70
2017-11-18T10:17:49.612Z,71
2017-11-18T10:18:48.387Z,77
2017-11-18T10:19:49.504Z,82
2017-11-18T10:20:51.590Z,84
2017-11-18T10:21:48.985Z,88
2017-11-18T10:22:48.345Z,101
2017-11-18T10:23:48.258Z,116
2017-11-18T10:24:51.370Z,124
2017-11-18T10:25:49.451Z,115
2017-11-18T10:26:49.657Z,103
2017-11-18T10:27:48.488Z,97
2017-11-18T10:28:48.809Z,102
2017-11-18T10:29:47.840Z,102
2017-11-18T10:30:48.505Z,100
2017-11-18T10:31:55.853Z,91
2017-11-18T10:32:48.688Z,90
2017-11-18T10:33:47.949Z,94
2017-11-18T10:34:49.925Z,94
2017-11-18T10:35:48.700Z,93
2017-11-18T10:36:48.231Z,98
2017-11-18T10:37:48.116Z,111
2017-11-18T10:38:48.046Z,119
2017-11-18T10:39:48.767Z,112
2017-11-18T10:40:48.719Z,105
2017-11-18T10:41:48.676Z,100
2017-11-18T10:42:49.524Z,78
2017-11-18T10:43:48.415Z,63
2017-11-18T10:44:49.311Z,97
2017-11-18T10:45:50.262Z,237
2017-11-18T10:46:48.083Z,193
2017-11-18T10:47:47.860Z,158
2017-11-18T10:48:48.597Z,106
2017-11-18T10:49:48.445Z,82
2017-11-18T10:50:48.954Z,77
2017-11-18T10:51:48.798Z,64
2017-11-18T10:52:48.504Z,49
2017-11-18T10:53:48.418Z,43
2017-11-18T10:54:48.966Z,48
2017-11-18T10:55:48.740Z,51
2017-11-18T10:56:48.303Z,58
2017-11-18T10:57:48.034Z,71
2017-11-18T10:58:48.037Z,69
2017-11-18T10:59:49.277Z,65
2017-11-18T11:00:48.062Z,68
2017-11-18T11:01:48.773Z,68
2017-11-18T11:02:48.697Z,70
2017-11-18T11:03:48.887Z,89
2017-11-18T11:04:47.818Z,95
2017-11-18T11:05:48.481Z,96
2017-11-18T11:06:48.332Z,97
2017-11-18T11:07:48.261Z,87
2017-11-18T11:08:48.474Z,102
2017-11-18T11:09:48.360Z,128
2017-11-18T11:10:48.363Z,136
2017-11-18T11:11:48.822Z,118
2017-11-18T11:12:49.233Z,128
2017-11-18T11:13:48.152Z,104
2017-11-18T11:14:48.373Z,93
2017-11-18T11:15:48.396Z,87
2017-11-18T11:16:51.174Z,86
2017-11-18T11:17:49.111Z,65
2017-11-18T11:18:49.919Z,60
2017-11-18T11:19:48.571Z,79
2017-11-18T11:20:48.455Z,108
2017-11-18T11:21:48.294Z,112
2017-11-18T11:22:48.558Z,100
2017-11-18T11:23:48.430Z,85
2017-11-18T11:24:48.483Z,83
2017-11-18T11:25:48.479Z,47
2017-11-18T11:26:48.251Z,28
2017-11-18T11:27:48.199Z,43
2017-11-18T11:28:47.881Z,43
2017-11-18T11:29:49.725Z,56
2017-11-18T11:30:48.423Z,55
2017-11-18T11:31:48.334Z,45
2017-11-18T11:32:48.065Z,49
2017-11-18T11:33:47.904Z,61
2017-11-18T11:34:48.627Z,69
2017-11-18T11:35:48.353Z,69
2017-11-18T11:36:48.102Z,83
2017-11-18T11:37:47.918Z,96
2017-11-18T11:38:48.705Z,112
2017-11-18T11:39:48.487Z,89
2017-11-18T11:40:48.011Z,101
2017-11-18T11:41:48.290Z,84
2017-11-18T11:42:48.221Z,75
2017-11-18T11:43:48.456Z,106
2017-11-18T11:44:48.280Z,91
2017-11-18T11:45:48.198Z,89
2017-11-18T11:46:48.598Z,102
2017-11-18T11:47:48.689Z,92
2017-11-18T11:48:51.406Z,260
2017-11-18T11:50:48.803Z,267
2017-11-18T11:51:48.829Z,91
2017-11-18T11:52:48.651Z,62
2017-11-18T11:54:04.398Z,54
2017-11-18T11:54:48.152Z,67
2017-11-18T11:55:48.579Z,67
2017-11-18T11:56:48.324Z,59
2017-11-18T11:57:48.446Z,61
2017-11-18T11:58:48.553Z,54
2017-11-18T11:59:48.441Z,62
2017-11-18T12:00:48.692Z,68
2017-11-18T12:01:48.700Z,64
2017-11-18T12:02:48.555Z,75
2017-11-18T12:03:48.527Z,64
2017-11-18T12:04:49.469Z,68
2017-11-18T12:05:48.196Z,63
2017-11-18T12:06:48.053Z,70
2017-11-18T12:07:50.113Z,84
2017-11-18T12:08:48.522Z,95
2017-11-18T12:09:48.566Z,94
2017-11-18T12:10:48.474Z,85
2017-11-18T12:11:48.248Z,72
2017-11-18T12:12:49.961Z,51
2017-11-18T12:13:48.723Z,49
2017-11-18T12:14:49.127Z,56
2017-11-18T12:15:48.875Z,52
2017-11-18T12:16:48.700Z,78
2017-11-18T12:17:48.608Z,85
2017-11-18T12:18:48.966Z,97
2017-11-18T12:19:48.792Z,104
2017-11-18T12:20:48.780Z,103
2017-11-18T12:21:48.659Z,104
2017-11-18T12:22:49.121Z,140
2017-11-18T12:23:47.944Z,117
2017-11-18T12:24:48.187Z,108
2017-11-18T12:25:49.140Z,97
2017-11-18T12:26:48.096Z,110
2017-11-18T12:27:48.049Z,81
2017-11-18T12:28:48.834Z,77
2017-11-18T12:29:49.331Z,76
2017-11-18T12:30:48.265Z,86
2017-11-18T12:31:48.250Z,83
2017-11-18T12:32:49.327Z,87
2017-11-18T12:33:48.371Z,90
2017-11-18T12:34:48.051Z,84
2017-11-18T12:35:48.493Z,101
2017-11-18T12:36:48.316Z,128
2017-11-18T12:37:48.153Z,82
2017-11-18T12:38:48.125Z,85
2017-11-18T12:39:48.608Z,102
2017-11-18T12:40:48.612Z,113
2017-11-18T12:41:48.734Z,94
2017-11-18T12:42:48.621Z,68
2017-11-18T12:43:49.401Z,57
2017-11-18T12:44:49.050Z,44
2017-11-18T12:45:48.210Z,30
2017-11-18T12:46:48.300Z,36
2017-11-18T12:47:48.252Z,35
2017-11-18T12:48:48.500Z,34
2017-11-18T12:49:49.028Z,26
2017-11-18T12:50:48.898Z,27
2017-11-18T12:51:48.850Z,27
2017-11-18T12:52:48.790Z,30
2017-11-18T12:53:48.028Z,28
2017-11-18T12:54:49.035Z,28
2017-11-18T12:55:49.317Z,35
2017-11-18T12:56:48.816Z,35
2017-11-18T12:57:48.832Z,32
2017-11-18T12:58:48.521Z,22
2017-11-18T12:59:48.770Z,15
2017-11-18T13:00:48.444Z,11
2017-11-18T13:01:48.266Z,9
2017-11-18T13:02:48.965Z,8
2017-11-18T13:03:48.673Z,10
2017-11-18T13:04:47.814Z,10
2017-11-18T13:05:48.461Z,11
2017-11-18T13:06:48.427Z,10
2017-11-18T13:07:48.378Z,12
2017-11-18T13:08:48.162Z,10
2017-11-18T13:09:48.697Z,10
2017-11-18T13:10:49.188Z,12
2017-11-18T13:12:32.009Z,11
2017-11-18T13:13:37.490Z,11
2017-11-18T13:14:26.217Z,11
2017-11-18T13:15:21.027Z,11
2017-11-18T13:16:21.669Z,9
2017-11-18T13:17:24.018Z,7
2017-11-18T13:18:21.794Z,5
2017-11-18T13:19:21.424Z,3
2017-11-18T13:20:20.781Z,4
2017-11-18T13:21:21.996Z,7
2017-11-18T13:22:21.013Z,8
2017-11-18T13:23:21.373Z,7
2017-11-18T13:24:22.945Z,7
2017-11-18T13:25:21.358Z,7
2017-11-18T13:26:40.693Z,7
2017-11-18T13:27:23.165Z,7
2017-11-18T13:28:58.525Z,9
2017-11-18T13:30:33.269Z,11
2017-11-18T13:31:36.000Z,12
2017-11-18T13:32:29.383Z,12
2017-11-18T13:33:28.858Z,12
2017-11-18T13:34:42.014Z,12
2017-11-18T13:35:21.858Z,13
2017-11-18T13:36:23.026Z,13
2017-11-18T13:37:29.470Z,12
2017-11-18T13:38:28.372Z,11
2017-11-18T13:39:22.113Z,9
2017-11-18T13:40:20.528Z,9
2017-11-18T13:41:22.420Z,9
2017-11-18T13:42:22.813Z,10
2017-11-18T13:43:20.664Z,9
2017-11-18T13:44:20.476Z,8
2017-11-18T13:45:21.287Z,8
2017-11-18T13:46:21.488Z,8
2017-11-18T13:47:20.621Z,8
2017-11-18T13:48:21.391Z,8
2017-11-18T13:49:20.357Z,9
2017-11-18T13:50:20.986Z,9
2017-11-18T13:51:21.672Z,10
2017-11-18T13:52:22.283Z,10
2017-11-18T13:53:21.367Z,11
2017-11-18T13:54:21.494Z,16
2017-11-18T13:55:20.484Z,16
2017-11-18T13:56:22.282Z,12
2017-11-18T13:57:21.029Z,11
2017-11-18T13:58:20.921Z,10
2017-11-18T13:59:21.223Z,11
2017-11-18T14:00:21.450Z,12
2017-11-18T14:01:20.476Z,10
2017-11-18T14:02:21.382Z,10
2017-11-18T14:03:20.548Z,10
2017-11-18T14:04:21.569Z,11
2017-11-18T14:06:37.458Z,14
2017-11-18T14:07:36.233Z,16
2017-11-18T14:08:36.315Z,16
2017-11-18T14:09:36.110Z,16
2017-11-18T14:10:35.875Z,16
2017-11-18T14:11:37.120Z,16
2017-11-18T14:12:36.122Z,16
2017-11-18T14:13:35.914Z,15
2017-11-18T14:14:35.922Z,14
2017-11-18T14:15:35.923Z,13
2017-11-18T14:16:36.493Z,13
2017-11-18T14:17:36.476Z,14
2017-11-18T14:18:36.935Z,14
2017-11-18T14:19:37.472Z,14
2017-11-18T14:20:36.657Z,12
2017-11-18T14:21:37.089Z,9
2017-11-18T14:22:35.931Z,8
2017-11-18T14:23:36.491Z,7
2017-11-18T14:24:35.831Z,6
2017-11-18T14:25:36.183Z,6
2017-11-18T14:26:36.330Z,6
2017-11-18T14:27:36.103Z,6
2017-11-18T14:28:35.717Z,6
2017-11-18T14:29:36.630Z,5
2017-11-18T14:30:37.850Z,5
2017-11-18T14:31:35.499Z,5
2017-11-18T14:32:36.422Z,6
2017-11-18T14:33:35.705Z,5
2017-11-18T14:34:36.964Z,4
2017-11-18T14:35:35.924Z,4
2017-11-18T14:36:35.755Z,3